sensor_id;sensor_type;location;lat;lon;timestamp;P1;durP1;ratioP1;P2;durP2;ratioP2
41201;SDS011;26936;50.524;8.684;2022-08-25T00:01:08;3.80;;;2.00;;
41201;SDS011;26936;50.524;8.684;2022-08-25T00:03:44;5.20;;;2.20;;
41201;SDS011;26936;50.524;8.684;2022-08-25T00:06:10;2.70;;;2.15;;
41201;SDS011;26936;50.524;8.684;2022-08-25T00:08:37;5.95;;;2.40;;
41201;SDS011;26936;50.524;8.684;2022-08-25T00:11:07;6.97;;;2.15;;
41201;SDS011;26936;50.524;8.684;2022-08-25T00:13:42;3.55;;;2.00;;
41201;SDS011;26936;50.524;8.684;2022-08-25T00:16:10;6.07;;;2.15;;
41201;SDS011;26936;50.524;8.684;2022-08-25T00:18:37;3.70;;;2.10;;
41201;SDS011;26936;50.524;8.684;2022-08-25T00:21:04;2.67;;;1.92;;
41201;SDS011;26936;50.524;8.684;2022-08-25T00:23:30;3.53;;;2.50;;
41201;SDS011;26936;50.524;8.684;2022-08-25T00:25:55;5.13;;;2.30;;
41201;SDS011;26936;50.524;8.684;2022-08-25T00:28:21;4.75;;;2.17;;
41201;SDS011;26936;50.524;8.684;2022-08-25T00:30:46;6.47;;;3.10;;
41201;SDS011;26936;50.524;8.684;2022-08-25T00:33:13;5.65;;;2.78;;
41201;SDS011;26936;50.524;8.684;2022-08-25T00:35:39;3.22;;;2.25;;
41201;SDS011;26936;50.524;8.684;2022-08-25T00:38:05;4.63;;;2.35;;
41201;SDS011;26936;50.524;8.684;2022-08-25T00:40:31;3.60;;;2.35;;
41201;SDS011;26936;50.524;8.684;2022-08-25T00:42:56;5.00;;;2.70;;
41201;SDS011;26936;50.524;8.684;2022-08-25T00:45:22;5.72;;;2.65;;
41201;SDS011;26936;50.524;8.684;2022-08-25T00:47:47;3.92;;;2.20;;
41201;SDS011;26936;50.524;8.684;2022-08-25T00:50:13;4.82;;;2.55;;
41201;SDS011;26936;50.524;8.684;2022-08-25T00:52:41;8.52;;;2.45;;
41201;SDS011;26936;50.524;8.684;2022-08-25T00:55:13;3.83;;;2.38;;
41201;SDS011;26936;50.524;8.684;2022-08-25T00:57:43;4.22;;;2.15;;
41201;SDS011;26936;50.524;8.684;2022-08-25T01:00:17;3.33;;;2.25;;
41201;SDS011;26936;50.524;8.684;2022-08-25T01:02:46;6.00;;;2.35;;
41201;SDS011;26936;50.524;8.684;2022-08-25T01:05:11;3.78;;;2.58;;
41201;SDS011;26936;50.524;8.684;2022-08-25T01:07:38;4.18;;;2.38;;
41201;SDS011;26936;50.524;8.684;2022-08-25T01:10:05;3.63;;;2.60;;
41201;SDS011;26936;50.524;8.684;2022-08-25T01:12:32;6.18;;;2.92;;
41201;SDS011;26936;50.524;8.684;2022-08-25T01:14:57;5.63;;;2.95;;
41201;SDS011;26936;50.524;8.684;2022-08-25T01:17:31;3.90;;;2.40;;
41201;SDS011;26936;50.524;8.684;2022-08-25T01:19:57;4.15;;;2.38;;
41201;SDS011;26936;50.524;8.684;2022-08-25T01:22:23;3.93;;;2.40;;
41201;SDS011;26936;50.524;8.684;2022-08-25T01:24:52;8.30;;;2.88;;
41201;SDS011;26936;50.524;8.684;2022-08-25T01:27:23;4.35;;;2.58;;
41201;SDS011;26936;50.524;8.684;2022-08-25T01:29:48;4.82;;;2.80;;
41201;SDS011;26936;50.524;8.684;2022-08-25T01:32:13;5.20;;;2.90;;
41201;SDS011;26936;50.524;8.684;2022-08-25T01:34:40;3.88;;;2.85;;
41201;SDS011;26936;50.524;8.684;2022-08-25T01:37:07;5.57;;;2.95;;
41201;SDS011;26936;50.524;8.684;2022-08-25T01:39:34;6.30;;;3.33;;
41201;SDS011;26936;50.524;8.684;2022-08-25T01:44:31;4.50;;;3.03;;
41201;SDS011;26936;50.524;8.684;2022-08-25T01:46:59;6.53;;;3.17;;
41201;SDS011;26936;50.524;8.684;2022-08-25T01:49:25;4.60;;;2.97;;
41201;SDS011;26936;50.524;8.684;2022-08-25T01:51:51;4.30;;;3.00;;
41201;SDS011;26936;50.524;8.684;2022-08-25T01:54:21;6.13;;;3.05;;
41201;SDS011;26936;50.524;8.684;2022-08-25T01:56:47;4.07;;;2.90;;
41201;SDS011;26936;50.524;8.684;2022-08-25T01:59:19;3.57;;;3.17;;
41201;SDS011;26936;50.524;8.684;2022-08-25T02:04:11;4.27;;;3.10;;
41201;SDS011;26936;50.524;8.684;2022-08-25T02:06:36;6.38;;;2.72;;
41201;SDS011;26936;50.524;8.684;2022-08-25T02:09:05;3.10;;;2.35;;
41201;SDS011;26936;50.524;8.684;2022-08-25T02:11:34;6.80;;;2.70;;
41201;SDS011;26936;50.524;8.684;2022-08-25T02:14:01;4.07;;;2.90;;
41201;SDS011;26936;50.524;8.684;2022-08-25T02:16:28;4.45;;;2.95;;
41201;SDS011;26936;50.524;8.684;2022-08-25T02:18:55;4.47;;;3.28;;
41201;SDS011;26936;50.524;8.684;2022-08-25T02:21:23;5.35;;;2.88;;
41201;SDS011;26936;50.524;8.684;2022-08-25T02:23:48;5.45;;;2.72;;
41201;SDS011;26936;50.524;8.684;2022-08-25T02:26:13;5.13;;;3.03;;
41201;SDS011;26936;50.524;8.684;2022-08-25T02:28:41;5.72;;;3.35;;
41201;SDS011;26936;50.524;8.684;2022-08-25T02:31:08;4.57;;;3.25;;
41201;SDS011;26936;50.524;8.684;2022-08-25T02:33:34;5.85;;;3.38;;
41201;SDS011;26936;50.524;8.684;2022-08-25T02:35:59;3.85;;;3.10;;
41201;SDS011;26936;50.524;8.684;2022-08-25T02:38:25;3.45;;;3.00;;
41201;SDS011;26936;50.524;8.684;2022-08-25T02:40:53;7.57;;;3.10;;
41201;SDS011;26936;50.524;8.684;2022-08-25T02:43:22;4.18;;;2.97;;
41201;SDS011;26936;50.524;8.684;2022-08-25T02:45:47;4.77;;;3.40;;
41201;SDS011;26936;50.524;8.684;2022-08-25T02:48:12;4.60;;;3.27;;
41201;SDS011;26936;50.524;8.684;2022-08-25T02:50:38;5.13;;;3.00;;
41201;SDS011;26936;50.524;8.684;2022-08-25T02:53:04;6.70;;;2.97;;
41201;SDS011;26936;50.524;8.684;2022-08-25T02:55:29;5.93;;;3.42;;
41201;SDS011;26936;50.524;8.684;2022-08-25T02:57:54;4.67;;;3.00;;
41201;SDS011;26936;50.524;8.684;2022-08-25T03:00:19;4.80;;;3.00;;
41201;SDS011;26936;50.524;8.684;2022-08-25T03:02:45;5.05;;;2.97;;
41201;SDS011;26936;50.524;8.684;2022-08-25T03:05:11;5.20;;;3.53;;
41201;SDS011;26936;50.524;8.684;2022-08-25T03:07:38;5.47;;;3.65;;
41201;SDS011;26936;50.524;8.684;2022-08-25T03:10:08;6.03;;;3.07;;
41201;SDS011;26936;50.524;8.684;2022-08-25T03:12:36;4.53;;;3.17;;
41201;SDS011;26936;50.524;8.684;2022-08-25T03:15:01;4.47;;;3.33;;
41201;SDS011;26936;50.524;8.684;2022-08-25T03:17:26;6.60;;;3.35;;
41201;SDS011;26936;50.524;8.684;2022-08-25T03:19:52;7.15;;;3.53;;
41201;SDS011;26936;50.524;8.684;2022-08-25T03:22:18;5.50;;;3.47;;
41201;SDS011;26936;50.524;8.684;2022-08-25T03:24:43;6.93;;;3.35;;
41201;SDS011;26936;50.524;8.684;2022-08-25T03:27:08;5.87;;;3.90;;
41201;SDS011;26936;50.524;8.684;2022-08-25T03:29:33;4.70;;;3.17;;
41201;SDS011;26936;50.524;8.684;2022-08-25T03:31:59;5.13;;;3.33;;
41201;SDS011;26936;50.524;8.684;2022-08-25T03:34:26;7.13;;;3.60;;
41201;SDS011;26936;50.524;8.684;2022-08-25T03:36:53;5.47;;;3.45;;
41201;SDS011;26936;50.524;8.684;2022-08-25T03:39:21;5.05;;;3.30;;
41201;SDS011;26936;50.524;8.684;2022-08-25T03:41:48;4.85;;;3.53;;
41201;SDS011;26936;50.524;8.684;2022-08-25T03:44:14;5.47;;;3.25;;
41201;SDS011;26936;50.524;8.684;2022-08-25T03:46:41;5.43;;;3.63;;
41201;SDS011;26936;50.524;8.684;2022-08-25T03:49:12;3.90;;;3.38;;
41201;SDS011;26936;50.524;8.684;2022-08-25T03:51:43;6.97;;;4.05;;
41201;SDS011;26936;50.524;8.684;2022-08-25T03:54:11;5.20;;;3.40;;
41201;SDS011;26936;50.524;8.684;2022-08-25T03:56:37;6.03;;;3.80;;
41201;SDS011;26936;50.524;8.684;2022-08-25T03:59:04;5.88;;;3.80;;
41201;SDS011;26936;50.524;8.684;2022-08-25T04:01:32;7.65;;;3.70;;
41201;SDS011;26936;50.524;8.684;2022-08-25T04:03:58;6.45;;;3.70;;
41201;SDS011;26936;50.524;8.684;2022-08-25T04:06:23;5.83;;;3.90;;
41201;SDS011;26936;50.524;8.684;2022-08-25T04:08:48;5.43;;;3.77;;
41201;SDS011;26936;50.524;8.684;2022-08-25T04:11:18;5.53;;;3.70;;
41201;SDS011;26936;50.524;8.684;2022-08-25T04:13:44;6.20;;;3.72;;
41201;SDS011;26936;50.524;8.684;2022-08-25T04:16:11;5.47;;;3.75;;
41201;SDS011;26936;50.524;8.684;2022-08-25T04:18:38;5.75;;;3.95;;
41201;SDS011;26936;50.524;8.684;2022-08-25T04:21:04;7.85;;;4.20;;
41201;SDS011;26936;50.524;8.684;2022-08-25T04:23:30;6.70;;;3.80;;
41201;SDS011;26936;50.524;8.684;2022-08-25T04:25:55;6.25;;;4.18;;
41201;SDS011;26936;50.524;8.684;2022-08-25T04:28:21;7.28;;;4.13;;
41201;SDS011;26936;50.524;8.684;2022-08-25T04:30:46;7.77;;;4.10;;
41201;SDS011;26936;50.524;8.684;2022-08-25T04:33:11;6.60;;;4.10;;
41201;SDS011;26936;50.524;8.684;2022-08-25T04:35:37;8.45;;;3.90;;
41201;SDS011;26936;50.524;8.684;2022-08-25T04:38:02;5.53;;;4.53;;
41201;SDS011;26936;50.524;8.684;2022-08-25T04:40:28;7.60;;;3.90;;
41201;SDS011;26936;50.524;8.684;2022-08-25T04:42:53;7.37;;;3.97;;
41201;SDS011;26936;50.524;8.684;2022-08-25T04:45:18;6.57;;;4.20;;
41201;SDS011;26936;50.524;8.684;2022-08-25T04:47:44;6.23;;;3.67;;
41201;SDS011;26936;50.524;8.684;2022-08-25T04:50:09;6.50;;;4.60;;
41201;SDS011;26936;50.524;8.684;2022-08-25T04:52:35;8.18;;;4.00;;
41201;SDS011;26936;50.524;8.684;2022-08-25T04:55:01;8.85;;;4.80;;
41201;SDS011;26936;50.524;8.684;2022-08-25T04:57:27;5.80;;;3.95;;
41201;SDS011;26936;50.524;8.684;2022-08-25T04:59:52;8.20;;;4.10;;
41201;SDS011;26936;50.524;8.684;2022-08-25T05:02:18;4.25;;;3.40;;
41201;SDS011;26936;50.524;8.684;2022-08-25T05:04:43;5.57;;;4.13;;
41201;SDS011;26936;50.524;8.684;2022-08-25T05:07:08;7.88;;;4.00;;
41201;SDS011;26936;50.524;8.684;2022-08-25T05:09:34;6.38;;;3.90;;
41201;SDS011;26936;50.524;8.684;2022-08-25T05:12:00;5.38;;;3.70;;
41201;SDS011;26936;50.524;8.684;2022-08-25T05:14:26;4.97;;;3.83;;
41201;SDS011;26936;50.524;8.684;2022-08-25T05:16:51;6.70;;;3.80;;
41201;SDS011;26936;50.524;8.684;2022-08-25T05:19:17;8.00;;;3.83;;
41201;SDS011;26936;50.524;8.684;2022-08-25T05:21:43;8.23;;;4.13;;
41201;SDS011;26936;50.524;8.684;2022-08-25T05:24:08;4.90;;;4.00;;
41201;SDS011;26936;50.524;8.684;2022-08-25T05:26:34;6.38;;;4.40;;
41201;SDS011;26936;50.524;8.684;2022-08-25T05:29:00;5.95;;;3.88;;
41201;SDS011;26936;50.524;8.684;2022-08-25T05:31:28;8.80;;;4.03;;
41201;SDS011;26936;50.524;8.684;2022-08-25T05:33:56;5.70;;;4.03;;
41201;SDS011;26936;50.524;8.684;2022-08-25T05:36:22;5.82;;;4.18;;
41201;SDS011;26936;50.524;8.684;2022-08-25T05:38:48;6.50;;;3.35;;
41201;SDS011;26936;50.524;8.684;2022-08-25T05:41:15;7.68;;;3.80;;
41201;SDS011;26936;50.524;8.684;2022-08-25T05:43:43;5.22;;;3.10;;
41201;SDS011;26936;50.524;8.684;2022-08-25T05:46:10;5.18;;;3.22;;
41201;SDS011;26936;50.524;8.684;2022-08-25T05:48:36;4.60;;;3.47;;
41201;SDS011;26936;50.524;8.684;2022-08-25T05:51:04;6.30;;;3.38;;
41201;SDS011;26936;50.524;8.684;2022-08-25T05:53:30;5.95;;;3.08;;
41201;SDS011;26936;50.524;8.684;2022-08-25T05:55:57;5.88;;;3.40;;
41201;SDS011;26936;50.524;8.684;2022-08-25T05:58:23;3.75;;;3.35;;
41201;SDS011;26936;50.524;8.684;2022-08-25T06:00:51;4.43;;;3.28;;
41201;SDS011;26936;50.524;8.684;2022-08-25T06:03:17;3.97;;;3.13;;
41201;SDS011;26936;50.524;8.684;2022-08-25T06:05:42;4.65;;;2.78;;
41201;SDS011;26936;50.524;8.684;2022-08-25T06:08:08;8.13;;;3.30;;
41201;SDS011;26936;50.524;8.684;2022-08-25T06:10:33;4.70;;;2.80;;
41201;SDS011;26936;50.524;8.684;2022-08-25T06:12:59;4.15;;;3.20;;
41201;SDS011;26936;50.524;8.684;2022-08-25T06:15:25;6.97;;;3.58;;
41201;SDS011;26936;50.524;8.684;2022-08-25T06:17:51;5.30;;;3.28;;
41201;SDS011;26936;50.524;8.684;2022-08-25T06:20:18;7.82;;;3.88;;
41201;SDS011;26936;50.524;8.684;2022-08-25T06:22:48;5.88;;;3.58;;
41201;SDS011;26936;50.524;8.684;2022-08-25T06:25:14;9.73;;;4.05;;
41201;SDS011;26936;50.524;8.684;2022-08-25T06:27:41;7.88;;;4.20;;
41201;SDS011;26936;50.524;8.684;2022-08-25T06:30:08;8.77;;;4.38;;
41201;SDS011;26936;50.524;8.684;2022-08-25T06:32:35;8.25;;;4.40;;
41201;SDS011;26936;50.524;8.684;2022-08-25T06:35:03;8.20;;;4.68;;
41201;SDS011;26936;50.524;8.684;2022-08-25T06:37:30;8.43;;;4.38;;
41201;SDS011;26936;50.524;8.684;2022-08-25T06:39:55;6.57;;;4.43;;
41201;SDS011;26936;50.524;8.684;2022-08-25T06:42:21;7.77;;;4.00;;
41201;SDS011;26936;50.524;8.684;2022-08-25T06:44:46;8.40;;;4.25;;
41201;SDS011;26936;50.524;8.684;2022-08-25T06:47:12;9.50;;;4.20;;
41201;SDS011;26936;50.524;8.684;2022-08-25T06:49:39;7.07;;;4.03;;
41201;SDS011;26936;50.524;8.684;2022-08-25T06:52:05;6.43;;;3.83;;
41201;SDS011;26936;50.524;8.684;2022-08-25T06:54:30;6.97;;;3.50;;
41201;SDS011;26936;50.524;8.684;2022-08-25T06:56:56;9.13;;;3.67;;
41201;SDS011;26936;50.524;8.684;2022-08-25T06:59:21;8.83;;;3.87;;
41201;SDS011;26936;50.524;8.684;2022-08-25T07:01:46;8.20;;;3.50;;
41201;SDS011;26936;50.524;8.684;2022-08-25T07:04:11;9.87;;;3.53;;
41201;SDS011;26936;50.524;8.684;2022-08-25T07:06:37;5.35;;;3.63;;
41201;SDS011;26936;50.524;8.684;2022-08-25T07:09:03;6.80;;;3.73;;
41201;SDS011;26936;50.524;8.684;2022-08-25T07:11:31;12.70;;;4.15;;
41201;SDS011;26936;50.524;8.684;2022-08-25T07:13:58;8.55;;;3.90;;
41201;SDS011;26936;50.524;8.684;2022-08-25T07:16:24;8.88;;;3.88;;
41201;SDS011;26936;50.524;8.684;2022-08-25T07:18:50;7.68;;;4.32;;
41201;SDS011;26936;50.524;8.684;2022-08-25T07:21:15;6.38;;;3.92;;
41201;SDS011;26936;50.524;8.684;2022-08-25T07:23:40;8.27;;;4.10;;
41201;SDS011;26936;50.524;8.684;2022-08-25T07:26:16;9.65;;;4.07;;
41201;SDS011;26936;50.524;8.684;2022-08-25T07:28:49;11.52;;;4.68;;
41201;SDS011;26936;50.524;8.684;2022-08-25T07:31:14;9.90;;;4.20;;
41201;SDS011;26936;50.524;8.684;2022-08-25T07:33:40;8.25;;;4.50;;
41201;SDS011;26936;50.524;8.684;2022-08-25T07:36:25;14.07;;;4.55;;
41201;SDS011;26936;50.524;8.684;2022-08-25T07:38:51;13.68;;;5.13;;
41201;SDS011;26936;50.524;8.684;2022-08-25T07:41:16;10.20;;;5.28;;
41201;SDS011;26936;50.524;8.684;2022-08-25T07:43:41;7.50;;;4.27;;
41201;SDS011;26936;50.524;8.684;2022-08-25T07:46:08;8.63;;;4.78;;
41201;SDS011;26936;50.524;8.684;2022-08-25T07:48:34;7.20;;;4.22;;
41201;SDS011;26936;50.524;8.684;2022-08-25T07:51:05;8.30;;;4.67;;
41201;SDS011;26936;50.524;8.684;2022-08-25T07:53:31;9.20;;;5.05;;
41201;SDS011;26936;50.524;8.684;2022-08-25T07:55:56;13.43;;;4.90;;
41201;SDS011;26936;50.524;8.684;2022-08-25T07:58:22;6.72;;;4.43;;
41201;SDS011;26936;50.524;8.684;2022-08-25T08:00:48;7.95;;;4.40;;
41201;SDS011;26936;50.524;8.684;2022-08-25T08:03:14;8.10;;;4.47;;
41201;SDS011;26936;50.524;8.684;2022-08-25T08:05:39;8.38;;;4.55;;
41201;SDS011;26936;50.524;8.684;2022-08-25T08:08:04;11.65;;;4.53;;
41201;SDS011;26936;50.524;8.684;2022-08-25T08:10:30;11.40;;;5.17;;
41201;SDS011;26936;50.524;8.684;2022-08-25T08:12:56;10.10;;;5.30;;
41201;SDS011;26936;50.524;8.684;2022-08-25T08:15:21;7.60;;;4.47;;
41201;SDS011;26936;50.524;8.684;2022-08-25T08:17:47;9.40;;;4.95;;
41201;SDS011;26936;50.524;8.684;2022-08-25T08:20:12;9.30;;;4.93;;
41201;SDS011;26936;50.524;8.684;2022-08-25T08:22:38;6.53;;;4.93;;
41201;SDS011;26936;50.524;8.684;2022-08-25T08:25:06;8.02;;;5.00;;
41201;SDS011;26936;50.524;8.684;2022-08-25T08:27:32;5.63;;;4.68;;
41201;SDS011;26936;50.524;8.684;2022-08-25T08:29:58;8.00;;;5.05;;
41201;SDS011;26936;50.524;8.684;2022-08-25T08:32:24;8.23;;;5.28;;
41201;SDS011;26936;50.524;8.684;2022-08-25T08:34:50;6.70;;;4.80;;
41201;SDS011;26936;50.524;8.684;2022-08-25T08:37:15;7.82;;;5.20;;
41201;SDS011;26936;50.524;8.684;2022-08-25T08:39:40;6.60;;;5.20;;
41201;SDS011;26936;50.524;8.684;2022-08-25T08:47:27;7.20;;;5.10;;
41201;SDS011;26936;50.524;8.684;2022-08-25T08:53:28;5.70;;;5.10;;
41201;SDS011;26936;50.524;8.684;2022-08-25T08:56:09;6.00;;;5.35;;
41201;SDS011;26936;50.524;8.684;2022-08-25T09:01:05;7.50;;;5.17;;
41201;SDS011;26936;50.524;8.684;2022-08-25T09:03:38;6.93;;;5.43;;
41201;SDS011;26936;50.524;8.684;2022-08-25T09:06:29;7.85;;;5.32;;
41201;SDS011;26936;50.524;8.684;2022-08-25T09:09:01;7.28;;;5.32;;
41201;SDS011;26936;50.524;8.684;2022-08-25T09:11:33;12.23;;;5.68;;
41201;SDS011;26936;50.524;8.684;2022-08-25T09:14:20;7.18;;;4.90;;
41201;SDS011;26936;50.524;8.684;2022-08-25T09:16:57;5.68;;;4.95;;
41201;SDS011;26936;50.524;8.684;2022-08-25T09:22:29;9.65;;;5.40;;
41201;SDS011;26936;50.524;8.684;2022-08-25T09:25:10;7.45;;;5.10;;
41201;SDS011;26936;50.524;8.684;2022-08-25T09:28:01;8.45;;;4.90;;
41201;SDS011;26936;50.524;8.684;2022-08-25T09:30:32;5.80;;;5.03;;
41201;SDS011;26936;50.524;8.684;2022-08-25T09:33:07;5.55;;;4.88;;
41201;SDS011;26936;50.524;8.684;2022-08-25T09:35:36;8.95;;;5.10;;
41201;SDS011;26936;50.524;8.684;2022-08-25T09:38:06;8.32;;;5.32;;
41201;SDS011;26936;50.524;8.684;2022-08-25T09:40:36;7.53;;;5.68;;
41201;SDS011;26936;50.524;8.684;2022-08-25T09:43:04;6.43;;;5.20;;
41201;SDS011;26936;50.524;8.684;2022-08-25T09:45:43;6.70;;;5.32;;
41201;SDS011;26936;50.524;8.684;2022-08-25T09:48:19;6.78;;;5.00;;
41201;SDS011;26936;50.524;8.684;2022-08-25T09:50:52;7.22;;;5.03;;
41201;SDS011;26936;50.524;8.684;2022-08-25T09:53:22;5.65;;;5.13;;
41201;SDS011;26936;50.524;8.684;2022-08-25T09:55:51;7.60;;;5.07;;
41201;SDS011;26936;50.524;8.684;2022-08-25T09:58:22;10.07;;;5.05;;
41201;SDS011;26936;50.524;8.684;2022-08-25T10:03:31;6.65;;;4.80;;
41201;SDS011;26936;50.524;8.684;2022-08-25T10:06:04;7.32;;;5.35;;
41201;SDS011;26936;50.524;8.684;2022-08-25T10:11:01;6.55;;;5.38;;
41201;SDS011;26936;50.524;8.684;2022-08-25T10:13:47;7.00;;;5.63;;
41201;SDS011;26936;50.524;8.684;2022-08-25T10:16:26;8.65;;;4.90;;
41201;SDS011;26936;50.524;8.684;2022-08-25T10:19:00;5.90;;;5.28;;
41201;SDS011;26936;50.524;8.684;2022-08-25T10:21:26;8.25;;;5.22;;
41201;SDS011;26936;50.524;8.684;2022-08-25T10:23:51;6.70;;;5.17;;
41201;SDS011;26936;50.524;8.684;2022-08-25T10:31:45;9.17;;;5.57;;
41201;SDS011;26936;50.524;8.684;2022-08-25T10:39:39;8.52;;;5.45;;
41201;SDS011;26936;50.524;8.684;2022-08-25T10:45:02;8.25;;;5.28;;
41201;SDS011;26936;50.524;8.684;2022-08-25T10:48:06;7.43;;;5.10;;
41201;SDS011;26936;50.524;8.684;2022-08-25T10:53:56;6.68;;;4.78;;
41201;SDS011;26936;50.524;8.684;2022-08-25T10:56:39;6.47;;;4.60;;
41201;SDS011;26936;50.524;8.684;2022-08-25T10:59:10;5.45;;;4.55;;
41201;SDS011;26936;50.524;8.684;2022-08-25T11:04:43;6.70;;;4.82;;
41201;SDS011;26936;50.524;8.684;2022-08-25T11:07:23;5.63;;;4.63;;
41201;SDS011;26936;50.524;8.684;2022-08-25T11:09:53;7.70;;;4.50;;
41201;SDS011;26936;50.524;8.684;2022-08-25T11:12:26;7.13;;;4.68;;
41201;SDS011;26936;50.524;8.684;2022-08-25T11:14:57;5.85;;;4.63;;
41201;SDS011;26936;50.524;8.684;2022-08-25T11:17:27;9.23;;;4.90;;
41201;SDS011;26936;50.524;8.684;2022-08-25T11:20:06;9.23;;;4.78;;
41201;SDS011;26936;50.524;8.684;2022-08-25T11:22:39;6.43;;;4.32;;
41201;SDS011;26936;50.524;8.684;2022-08-25T11:28:17;5.57;;;4.40;;
41201;SDS011;26936;50.524;8.684;2022-08-25T11:30:51;8.65;;;4.47;;
41201;SDS011;26936;50.524;8.684;2022-08-25T11:33:20;5.15;;;4.60;;
41201;SDS011;26936;50.524;8.684;2022-08-25T11:35:53;7.32;;;4.68;;
41201;SDS011;26936;50.524;8.684;2022-08-25T11:49:58;6.35;;;4.45;;
41201;SDS011;26936;50.524;8.684;2022-08-25T12:00:52;7.57;;;5.03;;
41201;SDS011;26936;50.524;8.684;2022-08-25T12:19:29;5.70;;;4.47;;
41201;SDS011;26936;50.524;8.684;2022-08-25T12:27:05;6.13;;;4.95;;
41201;SDS011;26936;50.524;8.684;2022-08-25T12:30:04;6.68;;;4.65;;
41201;SDS011;26936;50.524;8.684;2022-08-25T12:35:36;7.63;;;4.60;;
41201;SDS011;26936;50.524;8.684;2022-08-25T12:38:08;8.25;;;4.60;;
41201;SDS011;26936;50.524;8.684;2022-08-25T12:43:12;5.18;;;4.68;;
41201;SDS011;26936;50.524;8.684;2022-08-25T12:45:54;6.43;;;4.53;;
41201;SDS011;26936;50.524;8.684;2022-08-25T12:51:25;5.70;;;4.72;;
41201;SDS011;26936;50.524;8.684;2022-08-25T12:53:54;9.77;;;4.85;;
41201;SDS011;26936;50.524;8.684;2022-08-25T12:56:34;5.47;;;4.07;;
41201;SDS011;26936;50.524;8.684;2022-08-25T13:15:40;6.35;;;3.70;;
41201;SDS011;26936;50.524;8.684;2022-08-25T13:20:51;7.63;;;3.53;;
41201;SDS011;26936;50.524;8.684;2022-08-25T13:23:25;5.50;;;4.00;;
41201;SDS011;26936;50.524;8.684;2022-08-25T13:25:52;5.53;;;3.60;;
41201;SDS011;26936;50.524;8.684;2022-08-25T13:28:23;4.47;;;3.60;;
41201;SDS011;26936;50.524;8.684;2022-08-25T13:31:35;5.47;;;3.67;;
41201;SDS011;26936;50.524;8.684;2022-08-25T13:33:49;4.20;;;3.40;;
41201;SDS011;26936;50.524;8.684;2022-08-25T13:36:19;5.13;;;4.30;;
41201;SDS011;26936;50.524;8.684;2022-08-25T13:39:11;4.88;;;4.10;;
41201;SDS011;26936;50.524;8.684;2022-08-25T13:41:42;5.45;;;3.75;;
41201;SDS011;26936;50.524;8.684;2022-08-25T13:44:10;7.28;;;4.07;;
41201;SDS011;26936;50.524;8.684;2022-08-25T13:46:36;7.25;;;4.07;;
41201;SDS011;26936;50.524;8.684;2022-08-25T13:49:03;5.20;;;3.47;;
41201;SDS011;26936;50.524;8.684;2022-08-25T13:51:30;4.97;;;3.83;;
41201;SDS011;26936;50.524;8.684;2022-08-25T13:53:56;8.32;;;3.58;;
41201;SDS011;26936;50.524;8.684;2022-08-25T13:58:57;6.28;;;3.70;;
41201;SDS011;26936;50.524;8.684;2022-08-25T14:01:25;6.68;;;3.55;;
41201;SDS011;26936;50.524;8.684;2022-08-25T14:04:05;5.05;;;3.75;;
41201;SDS011;26936;50.524;8.684;2022-08-25T14:06:44;5.95;;;4.15;;
41201;SDS011;26936;50.524;8.684;2022-08-25T14:09:14;6.35;;;4.40;;
41201;SDS011;26936;50.524;8.684;2022-08-25T14:14:10;6.50;;;3.80;;
41201;SDS011;26936;50.524;8.684;2022-08-25T14:16:45;4.28;;;3.40;;
41201;SDS011;26936;50.524;8.684;2022-08-25T14:19:14;5.60;;;3.60;;
41201;SDS011;26936;50.524;8.684;2022-08-25T14:21:43;6.40;;;3.90;;
41201;SDS011;26936;50.524;8.684;2022-08-25T14:24:08;5.65;;;3.70;;
41201;SDS011;26936;50.524;8.684;2022-08-25T14:26:39;3.95;;;3.55;;
41201;SDS011;26936;50.524;8.684;2022-08-25T14:29:04;5.03;;;3.57;;
41201;SDS011;26936;50.524;8.684;2022-08-25T14:31:30;6.47;;;3.80;;
41201;SDS011;26936;50.524;8.684;2022-08-25T14:34:02;4.45;;;3.55;;
41201;SDS011;26936;50.524;8.684;2022-08-25T14:36:29;4.72;;;3.53;;
41201;SDS011;26936;50.524;8.684;2022-08-25T14:38:56;4.80;;;3.58;;
41201;SDS011;26936;50.524;8.684;2022-08-25T14:41:23;5.20;;;3.60;;
41201;SDS011;26936;50.524;8.684;2022-08-25T14:43:49;6.13;;;3.90;;
41201;SDS011;26936;50.524;8.684;2022-08-25T14:46:17;3.57;;;3.23;;
41201;SDS011;26936;50.524;8.684;2022-08-25T14:48:45;4.93;;;3.72;;
41201;SDS011;26936;50.524;8.684;2022-08-25T14:51:13;5.15;;;3.30;;
41201;SDS011;26936;50.524;8.684;2022-08-25T14:53:40;5.43;;;3.60;;
41201;SDS011;26936;50.524;8.684;2022-08-25T14:56:06;4.55;;;3.50;;
41201;SDS011;26936;50.524;8.684;2022-08-25T14:58:31;7.93;;;3.83;;
41201;SDS011;26936;50.524;8.684;2022-08-25T15:00:57;7.90;;;3.90;;
41201;SDS011;26936;50.524;8.684;2022-08-25T15:03:34;3.97;;;3.20;;
41201;SDS011;26936;50.524;8.684;2022-08-25T15:06:02;5.28;;;3.25;;
41201;SDS011;26936;50.524;8.684;2022-08-25T15:08:29;7.15;;;3.63;;
41201;SDS011;26936;50.524;8.684;2022-08-25T15:11:13;3.83;;;3.13;;
41201;SDS011;26936;50.524;8.684;2022-08-25T15:13:39;4.80;;;3.22;;
41201;SDS011;26936;50.524;8.684;2022-08-25T15:16:05;5.03;;;3.33;;
41201;SDS011;26936;50.524;8.684;2022-08-25T15:18:30;4.15;;;3.45;;
41201;SDS011;26936;50.524;8.684;2022-08-25T15:20:56;3.57;;;3.13;;
41201;SDS011;26936;50.524;8.684;2022-08-25T15:23:21;6.13;;;3.90;;
41201;SDS011;26936;50.524;8.684;2022-08-25T15:25:47;9.10;;;3.75;;
41201;SDS011;26936;50.524;8.684;2022-08-25T15:28:14;4.03;;;3.63;;
41201;SDS011;26936;50.524;8.684;2022-08-25T15:30:40;4.93;;;3.40;;
41201;SDS011;26936;50.524;8.684;2022-08-25T15:33:05;5.57;;;3.83;;
41201;SDS011;26936;50.524;8.684;2022-08-25T15:35:30;5.17;;;3.93;;
41201;SDS011;26936;50.524;8.684;2022-08-25T15:37:56;5.07;;;3.73;;
41201;SDS011;26936;50.524;8.684;2022-08-25T15:40:21;6.00;;;4.03;;
41201;SDS011;26936;50.524;8.684;2022-08-25T15:42:46;6.53;;;3.95;;
41201;SDS011;26936;50.524;8.684;2022-08-25T15:45:11;4.07;;;3.60;;
41201;SDS011;26936;50.524;8.684;2022-08-25T15:47:37;4.95;;;3.50;;
41201;SDS011;26936;50.524;8.684;2022-08-25T15:50:10;5.53;;;3.90;;
41201;SDS011;26936;50.524;8.684;2022-08-25T15:52:41;6.05;;;3.80;;
41201;SDS011;26936;50.524;8.684;2022-08-25T15:55:07;4.45;;;3.50;;
41201;SDS011;26936;50.524;8.684;2022-08-25T15:57:33;6.53;;;4.10;;
41201;SDS011;26936;50.524;8.684;2022-08-25T15:59:59;5.80;;;3.72;;
41201;SDS011;26936;50.524;8.684;2022-08-25T16:02:24;4.10;;;3.63;;
41201;SDS011;26936;50.524;8.684;2022-08-25T16:04:50;4.30;;;3.60;;
41201;SDS011;26936;50.524;8.684;2022-08-25T16:07:17;4.75;;;3.78;;
41201;SDS011;26936;50.524;8.684;2022-08-25T16:09:43;6.68;;;3.83;;
41201;SDS011;26936;50.524;8.684;2022-08-25T16:12:08;7.53;;;3.60;;
41201;SDS011;26936;50.524;8.684;2022-08-25T16:14:33;5.70;;;3.80;;
41201;SDS011;26936;50.524;8.684;2022-08-25T16:16:58;5.20;;;4.23;;
41201;SDS011;26936;50.524;8.684;2022-08-25T16:19:24;7.30;;;3.70;;
41201;SDS011;26936;50.524;8.684;2022-08-25T16:21:50;4.40;;;3.45;;
41201;SDS011;26936;50.524;8.684;2022-08-25T16:24:16;5.75;;;3.67;;
41201;SDS011;26936;50.524;8.684;2022-08-25T16:26:42;5.38;;;3.67;;
41201;SDS011;26936;50.524;8.684;2022-08-25T16:29:11;5.95;;;3.63;;
41201;SDS011;26936;50.524;8.684;2022-08-25T16:31:38;5.70;;;3.45;;
41201;SDS011;26936;50.524;8.684;2022-08-25T16:34:03;5.40;;;3.60;;
41201;SDS011;26936;50.524;8.684;2022-08-25T16:36:29;5.25;;;3.60;;
41201;SDS011;26936;50.524;8.684;2022-08-25T16:38:55;4.75;;;3.22;;
41201;SDS011;26936;50.524;8.684;2022-08-25T16:41:22;4.22;;;3.13;;
41201;SDS011;26936;50.524;8.684;2022-08-25T16:43:50;4.82;;;3.50;;
41201;SDS011;26936;50.524;8.684;2022-08-25T16:46:16;4.60;;;3.20;;
41201;SDS011;26936;50.524;8.684;2022-08-25T16:48:43;3.85;;;3.42;;
41201;SDS011;26936;50.524;8.684;2022-08-25T16:51:09;5.40;;;3.35;;
41201;SDS011;26936;50.524;8.684;2022-08-25T16:53:37;6.18;;;3.70;;
41201;SDS011;26936;50.524;8.684;2022-08-25T16:56:22;6.07;;;3.67;;